Time;durP1;ratioP1;P1;durP2;ratioP2;P2;SDS_P1;SDS_P2;PMS_P1;PMS_P2;Temp;Humidity;BMP_temperature;BMP_pressure;BME280_temperature;BME280_humidity;BME280_pressure;Samples;Min_cycle;Max_cycle;Signal;HPM_P1;HPM_P2
2022/09/14 00:01:18;;;;;;;60.80;3.77;;;;;;;;;;5074358;28;20448;-65
2022/09/14 00:03:46;;;;;;;59.20;3.53;;;;;;;;;;5074421;28;21006;-65
2022/09/14 00:06:14;;;;;;;61.90;3.50;;;;;;;;;;5074729;28;20447;-64
2022/09/14 00:08:43;;;;;;;61.97;4.27;;;;;;;;;;5074253;28;20443;-65
2022/09/14 00:11:11;;;;;;;59.87;3.97;;;;;;;;;;5074007;28;20483;-65
2022/09/14 00:13:39;;;;;;;59.20;3.40;;;;;;;;;;5074280;28;20528;-65
2022/09/14 00:16:07;;;;;;;59.27;3.90;;;;;;;;;;5073481;28;20534;-65
2022/09/14 00:18:34;;;;;;;61.67;4.17;;;;;;;;;;5071949;28;20955;-65
2022/09/14 00:21:02;;;;;;;60.27;4.27;;;;;;;;;;5074545;28;20454;-66
2022/09/14 00:23:29;;;;;;;59.30;3.80;;;;;;;;;;5074350;28;20473;-65
2022/09/14 00:26:02;;;;;;;60.30;4.20;;;;;;;;;;5074208;28;20446;-66
2022/09/14 00:28:29;;;;;;;60.40;4.83;;;;;;;;;;5073868;28;20801;-65
2022/09/14 00:30:56;;;;;;;59.10;3.80;;;;;;;;;;5073214;28;20490;-66
2022/09/14 00:33:23;;;;;;;60.57;4.20;;;;;;;;;;5073502;28;20463;-65
2022/09/14 00:35:50;;;;;;;58.67;3.47;;;;;;;;;;5073758;28;20940;-65
2022/09/14 00:38:17;;;;;;;59.40;3.80;;;;;;;;;;5073739;28;20452;-65
2022/09/14 00:40:44;;;;;;;58.90;3.70;;;;;;;;;;5073576;28;20440;-65
2022/09/14 00:43:15;;;;;;;60.00;3.73;;;;;;;;;;5073730;28;20471;-66
2022/09/14 00:45:42;;;;;;;59.90;4.00;;;;;;;;;;5073570;28;20444;-65
2022/09/14 00:48:09;;;;;;;59.47;4.20;;;;;;;;;;5073434;28;20443;-65
2022/09/14 00:50:37;;;;;;;60.03;3.80;;;;;;;;;;5070889;28;20487;-65
2022/09/14 00:53:04;;;;;;;58.67;3.67;;;;;;;;;;5072604;28;20443;-65
2022/09/14 00:55:31;;;;;;;59.30;4.10;;;;;;;;;;5073468;28;20449;-66
2022/09/14 00:57:59;;;;;;;60.30;4.60;;;;;;;;;;5073218;28;20451;-65
2022/09/14 01:00:29;;;;;;;60.00;3.53;;;;;;;;;;5072859;28;20967;-65
2022/09/14 01:03:33;;;;;;;59.57;3.83;;;;;;;;;;5073587;28;20450;-65
2022/09/14 01:06:03;;;;;;;58.60;3.40;;;;;;;;;;5052157;28;20448;-65
2022/09/14 01:08:38;;;;;;;58.47;3.23;;;;;;;;;;5053304;28;20959;-65
2022/09/14 01:11:23;;;;;;;58.90;3.73;;;;;;;;;;5053327;28;20577;-65
2022/09/14 01:13:56;;;;;;;59.80;4.00;;;;;;;;;;5053329;28;20468;-65
2022/09/14 01:16:28;;;;;;;58.77;3.30;;;;;;;;;;5053175;28;20448;-65
2022/09/14 01:18:57;;;;;;;59.60;3.50;;;;;;;;;;5053139;28;20452;-65
2022/09/14 01:21:25;;;;;;;59.30;4.07;;;;;;;;;;5052800;28;20487;-66
2022/09/14 01:23:56;;;;;;;65.80;4.00;;;;;;;;;;5073199;28;20474;-66
2022/09/14 01:26:35;;;;;;;59.23;4.37;;;;;;;;;;5073174;28;20456;-65
2022/09/14 01:29:07;;;;;;;60.20;3.97;;;;;;;;;;5072597;28;20958;-66
2022/09/14 01:31:36;;;;;;;59.40;4.00;;;;;;;;;;5072822;28;20487;-66
2022/09/14 01:34:08;;;;;;;60.80;4.70;;;;;;;;;;5072760;28;20479;-65
2022/09/14 01:36:37;;;;;;;62.00;4.50;;;;;;;;;;5073111;28;20653;-65
2022/09/14 01:39:04;;;;;;;59.50;4.23;;;;;;;;;;5071956;28;20456;-66
2022/09/14 01:41:32;;;;;;;59.13;3.90;;;;;;;;;;5072671;28;20454;-67
2022/09/14 01:44:03;;;;;;;59.00;3.90;;;;;;;;;;5072920;28;20463;-68
2022/09/14 01:46:34;;;;;;;62.47;4.67;;;;;;;;;;5072893;28;20479;-68
2022/09/14 01:49:03;;;;;;;60.80;4.27;;;;;;;;;;5072207;28;20530;-68
2022/09/14 01:51:34;;;;;;;60.00;4.07;;;;;;;;;;5072451;28;20486;-68
2022/09/14 01:54:04;;;;;;;59.57;3.80;;;;;;;;;;5069237;28;21057;-68
2022/09/14 01:56:34;;;;;;;62.07;4.10;;;;;;;;;;5072729;28;20474;-68
2022/09/14 01:59:08;;;;;;;60.50;3.93;;;;;;;;;;5072356;28;20443;-67
2022/09/14 02:01:38;;;;;;;60.80;4.40;;;;;;;;;;5072971;28;20520;-68
2022/09/14 02:04:08;;;;;;;59.50;3.60;;;;;;;;;;5072238;28;20987;-68
2022/09/14 02:06:36;;;;;;;59.43;4.10;;;;;;;;;;5072442;28;20459;-67
2022/09/14 02:09:04;;;;;;;60.70;4.30;;;;;;;;;;5071896;28;20448;-67
2022/09/14 02:11:31;;;;;;;60.40;4.10;;;;;;;;;;5072056;28;20487;-67
2022/09/14 02:13:58;;;;;;;63.67;4.23;;;;;;;;;;5072088;28;20478;-67
2022/09/14 02:16:26;;;;;;;63.57;4.10;;;;;;;;;;5072086;28;20443;-67
2022/09/14 02:18:54;;;;;;;61.70;4.43;;;;;;;;;;5071510;28;20451;-68
2022/09/14 02:21:23;;;;;;;59.90;3.97;;;;;;;;;;5072226;28;20454;-67
2022/09/14 02:23:50;;;;;;;60.27;4.30;;;;;;;;;;5072189;28;20531;-67
2022/09/14 02:26:18;;;;;;;60.50;4.50;;;;;;;;;;5070162;28;20447;-67
2022/09/14 02:28:45;;;;;;;67.73;4.90;;;;;;;;;;5071181;28;20458;-67
2022/09/14 02:31:17;;;;;;;63.00;5.47;;;;;;;;;;5071853;28;20833;-68
2022/09/14 02:33:46;;;;;;;59.87;4.70;;;;;;;;;;5071672;28;20481;-67
2022/09/14 02:36:17;;;;;;;61.20;4.60;;;;;;;;;;5071988;28;20951;-67
2022/09/14 02:38:47;;;;;;;60.60;4.70;;;;;;;;;;5071282;28;20939;-67
2022/09/14 02:41:18;;;;;;;59.40;4.10;;;;;;;;;;5071970;28;20804;-67
2022/09/14 02:43:54;;;;;;;61.97;4.30;;;;;;;;;;5071819;28;20470;-66
2022/09/14 02:46:27;;;;;;;61.73;4.93;;;;;;;;;;5071922;28;20514;-66
2022/09/14 02:48:59;;;;;;;59.37;4.33;;;;;;;;;;5071182;28;20458;-67
2022/09/14 02:51:29;;;;;;;67.00;5.03;;;;;;;;;;5071777;28;20475;-67
2022/09/14 02:53:59;;;;;;;61.40;4.73;;;;;;;;;;5071600;28;20471;-67
2022/09/14 02:56:27;;;;;;;61.77;4.40;;;;;;;;;;5071377;28;20451;-67
2022/09/14 02:58:54;;;;;;;59.87;4.93;;;;;;;;;;5069358;28;20452;-67
2022/09/14 03:01:22;;;;;;;62.83;4.83;;;;;;;;;;5071552;28;20538;-67
2022/09/14 03:03:49;;;;;;;60.63;5.17;;;;;;;;;;5071617;28;20477;-67
2022/09/14 03:06:16;;;;;;;60.70;4.90;;;;;;;;;;5071498;28;20473;-66
2022/09/14 03:08:46;;;;;;;59.70;4.60;;;;;;;;;;5070816;28;20447;-67
2022/09/14 03:11:13;;;;;;;59.20;3.90;;;;;;;;;;5071361;28;21049;-67
2022/09/14 03:13:40;;;;;;;62.77;7.00;;;;;;;;;;5071511;28;20463;-66
2022/09/14 03:16:07;;;;;;;64.97;5.80;;;;;;;;;;5071354;28;20450;-67
2022/09/14 03:18:35;;;;;;;60.00;4.80;;;;;;;;;;5075168;28;20451;-68
2022/09/14 03:21:03;;;;;;;61.80;5.60;;;;;;;;;;5075366;28;20444;-67
2022/09/14 03:23:30;;;;;;;59.67;4.50;;;;;;;;;;5075238;28;20471;-67
2022/09/14 03:25:59;;;;;;;59.67;4.07;;;;;;;;;;5075676;28;20447;-67
2022/09/14 03:28:26;;;;;;;60.43;4.30;;;;;;;;;;5075474;28;20451;-66
2022/09/14 03:30:54;;;;;;;60.70;4.73;;;;;;;;;;5073272;28;20483;-67
2022/09/14 03:33:21;;;;;;;59.97;4.77;;;;;;;;;;5075160;28;20524;-67
2022/09/14 03:35:48;;;;;;;59.60;4.43;;;;;;;;;;5075112;28;20463;-67
2022/09/14 03:38:15;;;;;;;60.90;4.40;;;;;;;;;;5075370;28;20459;-67
2022/09/14 03:40:42;;;;;;;59.73;4.23;;;;;;;;;;5074947;28;20447;-67
2022/09/14 03:43:11;;;;;;;60.00;4.30;;;;;;;;;;5075040;28;20483;-67
2022/09/14 03:45:38;;;;;;;61.20;4.27;;;;;;;;;;5075223;28;20856;-67
2022/09/14 03:48:06;;;;;;;60.13;4.83;;;;;;;;;;5074996;28;20443;-67
2022/09/14 03:50:33;;;;;;;62.80;4.20;;;;;;;;;;5074363;28;20561;-67
2022/09/14 03:53:00;;;;;;;61.40;4.80;;;;;;;;;;5074902;28;20454;-67
2022/09/14 03:55:27;;;;;;;66.23;4.60;;;;;;;;;;5074841;28;20966;-66
2022/09/14 03:57:54;;;;;;;60.77;5.33;;;;;;;;;;5074961;28;20451;-68
2022/09/14 04:00:23;;;;;;;59.63;4.47;;;;;;;;;;5074496;28;20451;-67
2022/09/14 04:02:50;;;;;;;60.17;4.47;;;;;;;;;;5072307;28;20459;-67
2022/09/14 04:05:18;;;;;;;60.90;5.60;;;;;;;;;;5074600;28;20469;-66
2022/09/14 04:07:45;;;;;;;60.03;4.50;;;;;;;;;;5074850;28;20447;-67
2022/09/14 04:10:12;;;;;;;60.93;4.90;;;;;;;;;;5074374;28;20447;-67
2022/09/14 04:12:39;;;;;;;61.07;4.50;;;;;;;;;;5073805;28;21076;-67
2022/09/14 04:15:07;;;;;;;61.13;4.40;;;;;;;;;;5074183;28;20474;-67
2022/09/14 04:17:35;;;;;;;59.77;4.67;;;;;;;;;;5074056;28;20446;-67
2022/09/14 04:20:03;;;;;;;61.47;4.90;;;;;;;;;;5074686;28;20505;-67
2022/09/14 04:22:30;;;;;;;62.67;5.00;;;;;;;;;;5074378;28;20530;-67
2022/09/14 04:24:57;;;;;;;59.50;4.53;;;;;;;;;;5074461;28;20475;-68
2022/09/14 04:27:24;;;;;;;60.50;4.80;;;;;;;;;;5074238;28;20444;-66
2022/09/14 04:29:51;;;;;;;60.63;4.60;;;;;;;;;;5073723;28;20470;-67
2022/09/14 04:32:18;;;;;;;60.00;4.70;;;;;;;;;;5074107;28;20489;-68
2022/09/14 04:34:48;;;;;;;62.13;5.17;;;;;;;;;;5071647;28;20821;-68
2022/09/14 04:37:15;;;;;;;60.17;5.27;;;;;;;;;;5074275;28;20447;-68
2022/09/14 04:39:43;;;;;;;59.47;4.30;;;;;;;;;;5073952;28;20443;-67
2022/09/14 04:42:10;;;;;;;59.30;4.20;;;;;;;;;;5074413;28;20451;-67
2022/09/14 04:44:37;;;;;;;59.80;4.30;;;;;;;;;;5073745;28;20471;-68
2022/09/14 04:47:04;;;;;;;60.10;4.73;;;;;;;;;;5074232;28;20823;-67
2022/09/14 04:49:31;;;;;;;59.13;4.20;;;;;;;;;;5073698;28;20443;-66
2022/09/14 04:51:59;;;;;;;60.63;4.60;;;;;;;;;;5073769;28;20483;-68
2022/09/14 04:54:27;;;;;;;61.20;4.43;;;;;;;;;;5073693;28;20474;-68
2022/09/14 04:56:54;;;;;;;59.30;4.50;;;;;;;;;;5073618;28;20910;-67
2022/09/14 04:59:21;;;;;;;60.00;4.67;;;;;;;;;;5073549;28;20451;-67
2022/09/14 05:01:48;;;;;;;60.57;4.40;;;;;;;;;;5073620;28;20462;-67
2022/09/14 05:04:15;;;;;;;61.17;5.40;;;;;;;;;;5073475;28;20468;-67
2022/09/14 05:06:43;;;;;;;59.67;4.67;;;;;;;;;;5071698;28;20467;-68
2022/09/14 05:09:13;;;;;;;59.80;4.33;;;;;;;;;;5073331;28;20458;-68
2022/09/14 05:11:40;;;;;;;60.90;4.87;;;;;;;;;;5072574;28;20483;-68
2022/09/14 05:14:07;;;;;;;60.07;4.50;;;;;;;;;;5073561;28;20471;-67
2022/09/14 05:16:35;;;;;;;60.03;4.30;;;;;;;;;;5073118;28;20448;-68
2022/09/14 05:19:03;;;;;;;60.57;4.83;;;;;;;;;;5073054;28;20459;-67
2022/09/14 05:21:31;;;;;;;62.10;4.80;;;;;;;;;;5073236;28;20446;-67
2022/09/14 05:23:59;;;;;;;61.40;4.80;;;;;;;;;;5073154;28;20471;-67
2022/09/14 05:26:29;;;;;;;64.87;5.50;;;;;;;;;;5073077;28;20473;-68
2022/09/14 05:28:57;;;;;;;61.40;5.47;;;;;;;;;;5073042;28;20458;-67
2022/09/14 05:31:25;;;;;;;61.10;5.73;;;;;;;;;;5072997;28;20843;-67
2022/09/14 05:33:52;;;;;;;60.83;5.70;;;;;;;;;;5072933;28;20475;-67
2022/09/14 05:36:20;;;;;;;61.87;5.30;;;;;;;;;;5072725;28;20439;-68
2022/09/14 05:38:47;;;;;;;61.30;5.33;;;;;;;;;;5069790;28;20456;-68
2022/09/14 05:41:15;;;;;;;61.20;5.00;;;;;;;;;;5072314;28;20495;-67
2022/09/14 05:43:44;;;;;;;60.00;5.17;;;;;;;;;;5072747;28;20468;-67
2022/09/14 05:46:12;;;;;;;61.90;5.87;;;;;;;;;;5072922;28;20451;-67
2022/09/14 05:48:39;;;;;;;60.97;5.17;;;;;;;;;;5072365;28;20454;-68
2022/09/14 05:51:08;;;;;;;61.20;6.13;;;;;;;;;;5072717;28;20848;-68
2022/09/14 05:53:35;;;;;;;59.73;5.00;;;;;;;;;;5072059;28;20845;-68
2022/09/14 05:56:03;;;;;;;60.70;5.40;;;;;;;;;;5072445;28;20475;-67
2022/09/14 05:58:30;;;;;;;61.93;5.80;;;;;;;;;;5072354;28;20447;-67
2022/09/14 06:00:59;;;;;;;60.67;5.83;;;;;;;;;;5072434;28;20443;-67
2022/09/14 06:03:26;;;;;;;62.17;6.10;;;;;;;;;;5072468;28;20467;-67
2022/09/14 06:05:53;;;;;;;61.77;5.20;;;;;;;;;;5072189;28;20448;-68
2022/09/14 06:08:22;;;;;;;62.50;6.00;;;;;;;;;;5072359;28;20455;-67
2022/09/14 06:10:49;;;;;;;63.10;6.20;;;;;;;;;;5069791;28;20455;-66
2022/09/14 06:13:16;;;;;;;61.67;5.97;;;;;;;;;;5072098;28;20490;-68
2022/09/14 06:15:43;;;;;;;60.10;4.97;;;;;;;;;;5072032;28;20929;-67
2022/09/14 06:18:12;;;;;;;60.67;5.90;;;;;;;;;;5072148;28;20825;-67
2022/09/14 06:20:39;;;;;;;60.40;5.60;;;;;;;;;;5072521;28;20439;-68
2022/09/14 06:23:06;;;;;;;62.30;5.40;;;;;;;;;;5072070;28;20443;-68
2022/09/14 06:25:33;;;;;;;60.57;5.90;;;;;;;;;;5071822;28;20462;-67
2022/09/14 06:28:00;;;;;;;61.17;5.30;;;;;;;;;;5072064;28;20466;-68
2022/09/14 06:30:27;;;;;;;60.33;5.87;;;;;;;;;;5071970;28;20447;-67
2022/09/14 06:32:54;;;;;;;60.87;6.03;;;;;;;;;;5071554;28;20486;-68
2022/09/14 06:35:23;;;;;;;63.93;5.37;;;;;;;;;;5071890;28;20932;-66
2022/09/14 06:37:50;;;;;;;61.53;5.43;;;;;;;;;;5072068;28;20458;-66
2022/09/14 06:40:17;;;;;;;67.60;6.27;;;;;;;;;;5071328;28;20993;-66
2022/09/14 06:42:44;;;;;;;60.47;5.90;;;;;;;;;;5071789;28;20443;-66
2022/09/14 06:45:11;;;;;;;60.90;5.67;;;;;;;;;;5071738;28;20485;-68
2022/09/14 06:47:38;;;;;;;59.93;4.77;;;;;;;;;;5071718;28;20455;-67
2022/09/14 06:50:06;;;;;;;59.93;4.97;;;;;;;;;;5071459;28;20961;-68
2022/09/14 06:52:36;;;;;;;60.70;5.83;;;;;;;;;;5070808;28;20562;-67
2022/09/14 06:55:03;;;;;;;62.07;6.20;;;;;;;;;;5071943;28;20478;-66
2022/09/14 06:57:30;;;;;;;62.90;5.87;;;;;;;;;;5071626;28;20449;-66
2022/09/14 06:59:57;;;;;;;61.67;6.10;;;;;;;;;;5071148;28;20473;-66
2022/09/14 07:02:24;;;;;;;60.03;5.17;;;;;;;;;;5071781;28;20462;-65
2022/09/14 07:04:51;;;;;;;61.70;4.67;;;;;;;;;;5072060;28;20468;-68
2022/09/14 07:07:18;;;;;;;61.90;5.53;;;;;;;;;;5071733;28;20459;-67
2022/09/14 07:09:47;;;;;;;64.57;6.10;;;;;;;;;;5071369;28;20451;-67
2022/09/14 07:12:14;;;;;;;60.50;5.43;;;;;;;;;;5071359;28;21014;-67
2022/09/14 07:14:41;;;;;;;60.27;5.40;;;;;;;;;;5071318;28;20482;-67
2022/09/14 07:17:08;;;;;;;61.77;5.67;;;;;;;;;;5071321;28;20451;-67
2022/09/14 07:19:36;;;;;;;62.80;6.10;;;;;;;;;;5071514;28;20907;-66
2022/09/14 07:22:03;;;;;;;60.47;4.90;;;;;;;;;;5071318;28;20516;-67
2022/09/14 07:24:30;;;;;;;60.03;4.63;;;;;;;;;;5071430;28;20521;-67
2022/09/14 07:26:58;;;;;;;62.80;4.40;;;;;;;;;;5071494;28;20454;-65
2022/09/14 07:29:26;;;;;;;60.27;4.70;;;;;;;;;;5071510;28;20928;-66
2022/09/14 07:31:53;;;;;;;60.60;4.77;;;;;;;;;;5071533;28;20853;-66
2022/09/14 07:34:22;;;;;;;63.17;5.60;;;;;;;;;;5071417;28;20479;-68
2022/09/14 07:36:49;;;;;;;59.57;4.23;;;;;;;;;;5071854;28;20447;-66
2022/09/14 07:39:17;;;;;;;60.57;4.90;;;;;;;;;;5070985;28;20444;-68
2022/09/14 07:41:45;;;;;;;60.80;4.50;;;;;;;;;;5071674;28;20465;-66
2022/09/14 07:44:15;;;;;;;60.23;4.87;;;;;;;;;;5071783;28;20475;-67
2022/09/14 07:46:43;;;;;;;65.40;4.50;;;;;;;;;;5071638;28;20458;-68
2022/09/14 07:49:11;;;;;;;59.50;4.27;;;;;;;;;;5071163;28;20450;-67
2022/09/14 07:51:39;;;;;;;59.57;4.27;;;;;;;;;;5070967;28;20448;-66
2022/09/14 07:54:06;;;;;;;60.37;4.37;;;;;;;;;;5071146;28;20991;-65
2022/09/14 07:56:34;;;;;;;59.87;4.00;;;;;;;;;;5071007;28;20450;-67
2022/09/14 07:59:01;;;;;;;59.63;4.30;;;;;;;;;;5071255;28;20464;-66
2022/09/14 08:01:30;;;;;;;59.20;3.80;;;;;;;;;;5071904;28;21088;-66
2022/09/14 08:03:57;;;;;;;59.30;3.90;;;;;;;;;;5074072;28;20471;-67
2022/09/14 08:06:25;;;;;;;59.47;4.10;;;;;;;;;;5074675;28;20447;-67
2022/09/14 08:08:53;;;;;;;60.27;4.70;;;;;;;;;;5074112;28;20680;-66
2022/09/14 08:11:21;;;;;;;59.50;4.00;;;;;;;;;;5074835;28;20454;-67
2022/09/14 08:13:50;;;;;;;60.27;3.70;;;;;;;;;;5074592;28;20499;-68
2022/09/14 08:16:18;;;;;;;59.10;3.97;;;;;;;;;;5074602;28;20449;-68
2022/09/14 08:18:46;;;;;;;59.20;4.00;;;;;;;;;;5074282;28;20856;-68
2022/09/14 08:21:14;;;;;;;59.07;3.90;;;;;;;;;;5074327;28;20519;-68
2022/09/14 08:23:42;;;;;;;59.13;4.30;;;;;;;;;;5074227;28;20459;-68
2022/09/14 08:26:10;;;;;;;58.97;3.70;;;;;;;;;;5074864;28;20435;-66
2022/09/14 08:28:37;;;;;;;59.10;3.80;;;;;;;;;;5074084;28;20443;-65
2022/09/14 08:31:05;;;;;;;60.57;4.27;;;;;;;;;;5074383;28;20512;-66
2022/09/14 08:33:33;;;;;;;59.90;3.80;;;;;;;;;;5074292;28;20505;-64
2022/09/14 08:36:02;;;;;;;59.37;3.90;;;;;;;;;;5073900;28;20478;-69
2022/09/14 08:38:29;;;;;;;58.70;3.37;;;;;;;;;;5074214;28;20454;-68
2022/09/14 08:40:57;;;;;;;62.10;3.80;;;;;;;;;;5073923;28;20956;-68
2022/09/14 08:43:25;;;;;;;60.77;3.93;;;;;;;;;;5074207;28;20459;-67
2022/09/14 08:45:55;;;;;;;59.77;3.27;;;;;;;;;;5074378;28;20450;-68
2022/09/14 08:48:24;;;;;;;59.73;3.90;;;;;;;;;;5073920;28;20447;-64
2022/09/14 08:50:52;;;;;;;59.27;3.43;;;;;;;;;;5074245;28;20478;-66
2022/09/14 08:53:22;;;;;;;60.60;3.80;;;;;;;;;;5073809;28;20556;-65
2022/09/14 08:55:50;;;;;;;59.10;3.60;;;;;;;;;;5073833;28;20459;-66
2022/09/14 08:58:21;;;;;;;61.20;4.37;;;;;;;;;;5073589;28;20443;-68
2022/09/14 09:00:51;;;;;;;58.87;4.00;;;;;;;;;;5073284;28;20453;-67
2022/09/14 09:03:37;;;;;;;62.23;3.77;;;;;;;;;;5073597;28;20467;-68
2022/09/14 09:06:08;;;;;;;59.10;3.90;;;;;;;;;;5074078;28;20826;-64
2022/09/14 09:08:39;;;;;;;60.60;3.57;;;;;;;;;;5073240;28;20950;-65
2022/09/14 09:11:09;;;;;;;59.07;3.30;;;;;;;;;;5073871;28;20451;-68
2022/09/14 09:13:37;;;;;;;60.50;3.70;;;;;;;;;;5072925;28;20491;-67
2022/09/14 09:16:06;;;;;;;60.00;3.30;;;;;;;;;;5072611;28;20920;-68
2022/09/14 09:18:37;;;;;;;58.67;3.27;;;;;;;;;;5072988;28;20451;-66
2022/09/14 09:21:06;;;;;;;58.67;3.40;;;;;;;;;;5073281;28;20447;-67
2022/09/14 09:23:34;;;;;;;58.00;3.53;;;;;;;;;;5073112;28;20500;-65
2022/09/14 09:26:04;;;;;;;59.30;3.53;;;;;;;;;;5073279;28;20451;-68
2022/09/14 09:28:31;;;;;;;59.80;3.20;;;;;;;;;;5073652;28;20816;-67
2022/09/14 09:30:59;;;;;;;58.50;3.20;;;;;;;;;;5071611;28;20573;-68
2022/09/14 09:33:27;;;;;;;59.10;3.70;;;;;;;;;;5072646;28;20890;-67
2022/09/14 09:35:55;;;;;;;62.00;3.70;;;;;;;;;;5072748;28;20459;-64
2022/09/14 09:38:24;;;;;;;58.93;3.23;;;;;;;;;;5072486;28;20549;-65
2022/09/14 09:40:53;;;;;;;59.90;3.00;;;;;;;;;;5073018;28;20884;-65
2022/09/14 09:43:22;;;;;;;58.80;2.90;;;;;;;;;;5072432;28;20459;-65
2022/09/14 09:45:52;;;;;;;58.30;2.90;;;;;;;;;;5073178;28;20451;-66
2022/09/14 09:48:20;;;;;;;58.80;3.00;;;;;;;;;;5071926;28;20447;-63
2022/09/14 09:50:48;;;;;;;58.67;2.90;;;;;;;;;;5071031;28;20443;-67
2022/09/14 09:53:16;;;;;;;58.97;2.83;;;;;;;;;;5072594;28;20505;-67
2022/09/14 09:55:47;;;;;;;60.70;3.20;;;;;;;;;;5072856;28;20443;-67
2022/09/14 09:58:22;;;;;;;59.83;2.80;;;;;;;;;;5073110;28;20447;-66
2022/09/14 10:00:56;;;;;;;58.10;2.50;;;;;;;;;;5072549;28;20497;-67
2022/09/14 10:03:27;;;;;;;57.67;2.50;;;;;;;;;;5071898;28;20978;-65
2022/09/14 10:06:00;;;;;;;58.67;2.77;;;;;;;;;;5072465;28;20455;-65
2022/09/14 10:08:33;;;;;;;59.00;2.50;;;;;;;;;;5072139;28;20451;-64
2022/09/14 10:11:00;;;;;;;58.40;2.73;;;;;;;;;;5072535;28;20455;-65
2022/09/14 10:13:30;;;;;;;57.40;2.30;;;;;;;;;;5072431;28;20491;-64
2022/09/14 10:16:06;;;;;;;57.33;2.60;;;;;;;;;;5072406;28;20957;-65
2022/09/14 10:18:34;;;;;;;60.70;2.70;;;;;;;;;;5072494;28;20447;-65
2022/09/14 10:21:05;;;;;;;57.40;2.50;;;;;;;;;;5072481;28;20447;-64
2022/09/14 10:23:35;;;;;;;58.07;2.60;;;;;;;;;;5060937;28;20988;-65
2022/09/14 10:26:32;;;;;;;59.83;2.90;;;;;;;;;;5061926;28;20459;-65
2022/09/14 10:29:14;;;;;;;65.00;2.70;;;;;;;;;;5000501;28;20450;-65
2022/09/14 10:31:43;;;;;;;60.60;3.10;;;;;;;;;;5051059;28;20461;-65
2022/09/14 10:34:14;;;;;;;61.77;2.73;;;;;;;;;;5051817;28;20496;-65
2022/09/14 10:36:46;;;;;;;58.97;2.97;;;;;;;;;;5052138;28;20455;-65
2022/09/14 10:39:15;;;;;;;58.90;3.27;;;;;;;;;;5051540;28;20960;-64
2022/09/14 10:41:46;;;;;;;60.00;2.90;;;;;;;;;;5052159;28;20502;-64
2022/09/14 10:44:23;;;;;;;59.77;2.73;;;;;;;;;;5052417;28;20855;-66
2022/09/14 10:46:58;;;;;;;58.80;2.80;;;;;;;;;;5052092;28;20451;-64
2022/09/14 10:49:32;;;;;;;58.17;3.10;;;;;;;;;;5051615;28;20458;-66
2022/09/14 10:52:04;;;;;;;59.87;3.03;;;;;;;;;;5052341;28;20851;-66
2022/09/14 10:54:39;;;;;;;58.80;3.00;;;;;;;;;;5051896;28;20493;-64
2022/09/14 10:57:11;;;;;;;58.90;3.10;;;;;;;;;;5052204;28;20468;-64
2022/09/14 10:59:45;;;;;;;58.57;2.90;;;;;;;;;;5052037;28;20983;-64
2022/09/14 11:02:28;;;;;;;57.97;2.50;;;;;;;;;;5052017;28;20452;-64
2022/09/14 11:05:01;;;;;;;57.97;2.50;;;;;;;;;;5051811;28;20480;-64
2022/09/14 11:07:33;;;;;;;58.10;2.73;;;;;;;;;;5051861;28;20441;-64
2022/09/14 11:10:04;;;;;;;60.83;2.50;;;;;;;;;;5051459;28;20451;-64
2022/09/14 11:12:35;;;;;;;61.80;2.53;;;;;;;;;;5051926;28;20449;-64
2022/09/14 11:15:08;;;;;;;57.90;2.70;;;;;;;;;;5051692;28;20507;-64
2022/09/14 11:17:42;;;;;;;58.40;2.77;;;;;;;;;;5051863;28;20444;-64
2022/09/14 11:20:19;;;;;;;68.80;3.13;;;;;;;;;;5051647;28;20428;-64
2022/09/14 11:22:50;;;;;;;57.50;2.43;;;;;;;;;;5051838;28;20436;-64
2022/09/14 11:25:19;;;;;;;58.10;2.80;;;;;;;;;;5051883;28;20445;-64
2022/09/14 11:27:49;;;;;;;57.40;2.40;;;;;;;;;;5051769;28;20452;-64
2022/09/14 11:30:18;;;;;;;58.70;2.30;;;;;;;;;;5051663;28;20452;-64
2022/09/14 11:32:49;;;;;;;57.37;2.37;;;;;;;;;;5051523;28;20448;-65
2022/09/14 11:35:18;;;;;;;61.30;2.97;;;;;;;;;;5051476;28;20458;-64
2022/09/14 11:37:47;;;;;;;57.40;2.40;;;;;;;;;;5052474;28;20444;-66
2022/09/14 11:40:17;;;;;;;57.27;2.40;;;;;;;;;;5055303;28;20448;-64
2022/09/14 11:42:46;;;;;;;57.07;2.40;;;;;;;;;;5055473;28;20444;-64
2022/09/14 11:45:19;;;;;;;57.90;2.73;;;;;;;;;;5055411;28;20440;-64
2022/09/14 11:47:50;;;;;;;57.27;2.13;;;;;;;;;;5055413;28;20444;-66
2022/09/14 11:50:20;;;;;;;59.70;2.53;;;;;;;;;;5055175;28;20933;-64
2022/09/14 11:52:48;;;;;;;57.80;2.33;;;;;;;;;;5055380;28;20448;-64
2022/09/14 11:55:17;;;;;;;58.63;2.90;;;;;;;;;;5055208;28;20487;-66
2022/09/14 11:57:45;;;;;;;58.00;2.60;;;;;;;;;;5055241;28;20519;-64
2022/09/14 12:00:42;;;;;;;57.97;3.00;;;;;;;;;;5054762;28;20967;-66
2022/09/14 12:03:15;;;;;;;57.57;2.60;;;;;;;;;;5054995;28;20475;-66
2022/09/14 12:05:43;;;;;;;58.30;2.60;;;;;;;;;;5055085;28;20959;-66
2022/09/14 12:08:38;;;;;;;58.33;2.67;;;;;;;;;;5054916;28;20529;-66
2022/09/14 12:11:23;;;;;;;58.10;2.60;;;;;;;;;;5055119;28;20952;-66
2022/09/14 12:13:51;;;;;;;58.27;2.67;;;;;;;;;;5054873;28;20492;-65
2022/09/14 12:16:18;;;;;;;58.90;3.03;;;;;;;;;;5054788;28;20448;-66
2022/09/14 12:18:47;;;;;;;58.27;2.90;;;;;;;;;;5054447;28;20444;-66
2022/09/14 12:21:20;;;;;;;58.80;2.83;;;;;;;;;;5054613;28;20452;-64
2022/09/14 12:23:51;;;;;;;58.70;3.00;;;;;;;;;;5054702;28;20468;-64
2022/09/14 12:26:36;;;;;;;57.73;2.50;;;;;;;;;;5054646;28;20551;-65
2022/09/14 12:29:21;;;;;;;59.67;3.13;;;;;;;;;;5053980;28;20441;-65
2022/09/14 12:32:00;;;;;;;59.03;3.20;;;;;;;;;;5066731;28;20447;-67
2022/09/14 12:34:31;;;;;;;59.40;3.10;;;;;;;;;;5073686;28;21032;-66
2022/09/14 12:37:02;;;;;;;58.70;2.83;;;;;;;;;;5073893;28;20447;-66
2022/09/14 12:39:30;;;;;;;60.50;3.30;;;;;;;;;;5073516;28;20444;-65
2022/09/14 12:42:06;;;;;;;58.60;3.27;;;;;;;;;;5073710;28;20447;-65
2022/09/14 12:44:37;;;;;;;58.90;3.23;;;;;;;;;;5073492;28;20466;-65
2022/09/14 12:47:23;;;;;;;58.60;2.87;;;;;;;;;;5073547;28;20959;-66
2022/09/14 12:49:52;;;;;;;58.87;3.00;;;;;;;;;;5072058;28;20443;-65
2022/09/14 12:52:31;;;;;;;58.57;2.97;;;;;;;;;;5073438;28;20791;-65
2022/09/14 12:55:03;;;;;;;60.70;3.17;;;;;;;;;;5073838;28;20479;-65
2022/09/14 12:57:35;;;;;;;59.20;3.10;;;;;;;;;;5073686;28;20450;-66
2022/09/14 13:00:06;;;;;;;58.97;2.97;;;;;;;;;;5073401;28;20447;-66
2022/09/14 13:02:53;;;;;;;59.03;3.10;;;;;;;;;;5073834;28;20868;-67
2022/09/14 13:05:24;;;;;;;59.33;3.13;;;;;;;;;;5073933;28;20470;-67
2022/09/14 13:07:51;;;;;;;59.77;4.03;;;;;;;;;;5073934;28;20458;-66
2022/09/14 13:10:20;;;;;;;61.83;3.50;;;;;;;;;;5073305;28;20943;-66
2022/09/14 13:12:48;;;;;;;59.10;3.60;;;;;;;;;;5073698;28;20501;-66
2022/09/14 13:15:21;;;;;;;59.70;3.43;;;;;;;;;;5073744;28;20505;-66
2022/09/14 13:18:01;;;;;;;59.70;4.00;;;;;;;;;;5073147;28;20443;-66
2022/09/14 13:20:30;;;;;;;60.10;4.10;;;;;;;;;;5072950;28;20454;-65
2022/09/14 13:22:58;;;;;;;59.83;3.70;;;;;;;;;;5073398;28;20451;-66
2022/09/14 13:25:26;;;;;;;61.00;4.23;;;;;;;;;;5073230;28;20817;-65
2022/09/14 13:27:53;;;;;;;62.20;3.80;;;;;;;;;;5073284;28;20500;-66
2022/09/14 13:30:22;;;;;;;58.77;3.30;;;;;;;;;;5073317;28;20461;-66
2022/09/14 13:32:50;;;;;;;59.87;3.60;;;;;;;;;;5071062;28;20455;-65
2022/09/14 13:35:19;;;;;;;59.03;3.50;;;;;;;;;;5073416;28;20578;-65
2022/09/14 13:37:47;;;;;;;60.17;3.37;;;;;;;;;;5072616;28;20447;-65
2022/09/14 13:40:15;;;;;;;60.30;3.63;;;;;;;;;;5071902;28;20460;-66
2022/09/14 13:42:43;;;;;;;60.57;3.63;;;;;;;;;;5073182;28;20447;-65
2022/09/14 13:45:13;;;;;;;58.97;3.20;;;;;;;;;;5072896;28;20456;-65
2022/09/14 13:47:40;;;;;;;59.17;3.10;;;;;;;;;;5073165;28;20447;-65
2022/09/14 13:50:08;;;;;;;60.53;3.10;;;;;;;;;;5072547;28;20449;-65
2022/09/14 13:52:37;;;;;;;59.20;3.10;;;;;;;;;;5072551;28;20451;-66
2022/09/14 13:55:18;;;;;;;60.10;3.00;;;;;;;;;;5072575;28;21030;-65
2022/09/14 13:58:04;;;;;;;62.80;3.00;;;;;;;;;;5072246;28;20448;-65
2022/09/14 14:00:31;;;;;;;59.53;3.10;;;;;;;;;;5071553;28;20465;-65
2022/09/14 14:03:00;;;;;;;59.30;3.37;;;;;;;;;;5069791;28;20447;-65
2022/09/14 14:05:28;;;;;;;58.70;3.43;;;;;;;;;;5072660;28;20816;-65
2022/09/14 14:07:56;;;;;;;58.80;3.10;;;;;;;;;;5072477;28;20451;-65
2022/09/14 14:10:27;;;;;;;59.30;2.90;;;;;;;;;;5072176;28;20455;-65
2022/09/14 14:12:54;;;;;;;58.57;2.70;;;;;;;;;;5072199;28;20835;-65
2022/09/14 14:15:36;;;;;;;58.60;2.93;;;;;;;;;;5072118;28;20484;-65
2022/09/14 14:18:18;;;;;;;58.60;3.00;;;;;;;;;;5072068;28;20454;-65
2022/09/14 14:20:45;;;;;;;58.43;2.60;;;;;;;;;;5071385;28;20819;-65
2022/09/14 14:23:20;;;;;;;58.50;2.70;;;;;;;;;;5072166;28;20459;-66
2022/09/14 14:25:52;;;;;;;58.07;2.80;;;;;;;;;;5072069;28;20496;-66
2022/09/14 14:28:23;;;;;;;58.27;2.60;;;;;;;;;;5072289;28;20470;-66
2022/09/14 14:30:50;;;;;;;58.13;2.73;;;;;;;;;;5071915;28;20453;-66
2022/09/14 14:33:18;;;;;;;58.77;3.03;;;;;;;;;;5069233;28;20471;-66
2022/09/14 14:35:46;;;;;;;58.60;2.87;;;;;;;;;;5070581;28;20491;-66
2022/09/14 14:38:13;;;;;;;58.37;2.70;;;;;;;;;;5070409;28;20971;-66
2022/09/14 14:40:42;;;;;;;58.77;3.03;;;;;;;;;;5070289;28;20531;-66
2022/09/14 14:43:13;;;;;;;58.60;3.00;;;;;;;;;;5070990;28;20769;-66
2022/09/14 14:45:40;;;;;;;59.33;3.50;;;;;;;;;;5071699;28;20455;-66